createdAt,value
2023-03-23T00:01:21.227Z,51.63
2023-03-23T00:03:51.317Z,51.67
2023-03-23T00:06:22.608Z,51.70
2023-03-23T00:08:58.220Z,51.77
2023-03-23T00:11:30.506Z,51.79
2023-03-23T00:14:02.354Z,51.85
2023-03-23T00:16:38.691Z,51.85
2023-03-23T00:19:08.034Z,51.87
2023-03-23T00:21:38.089Z,51.98
2023-03-23T00:24:14.138Z,52.09
2023-03-23T00:26:48.294Z,52.12
2023-03-23T00:29:22.474Z,52.17
2023-03-23T00:31:50.275Z,52.14
2023-03-23T00:34:23.324Z,52.15
2023-03-23T00:36:54.694Z,52.18
2023-03-23T00:39:21.603Z,52.18
2023-03-23T00:41:49.100Z,52.22
2023-03-23T00:44:22.022Z,52.23
2023-03-23T00:46:50.934Z,52.28
2023-03-23T00:49:20.373Z,52.16
2023-03-23T00:51:47.628Z,52.41
2023-03-23T00:54:14.678Z,52.47
2023-03-23T00:56:41.779Z,52.45
2023-03-23T00:59:09.080Z,52.51
2023-03-23T01:01:36.893Z,52.42
2023-03-23T01:04:07.854Z,52.53
2023-03-23T01:06:40.229Z,52.46
2023-03-23T01:09:10.369Z,52.64
2023-03-23T01:11:37.350Z,52.76
2023-03-23T01:14:04.628Z,52.67
2023-03-23T01:16:31.579Z,52.71
2023-03-23T01:18:58.575Z,52.68
2023-03-23T01:21:26.384Z,52.77
2023-03-23T01:23:53.430Z,52.91
2023-03-23T01:26:23.611Z,52.98
2023-03-23T01:28:51.136Z,52.86
2023-03-23T01:31:21.260Z,52.90
2023-03-23T01:33:48.743Z,52.96
2023-03-23T01:36:18.801Z,53.03
2023-03-23T01:38:47.723Z,53.01
2023-03-23T01:41:15.960Z,52.96
2023-03-23T01:44:07.473Z,53.13
2023-03-23T01:46:35.280Z,53.12
2023-03-23T01:49:10.140Z,53.01
2023-03-23T01:51:42.533Z,53.07
2023-03-23T01:54:15.305Z,53.03
2023-03-23T01:56:51.920Z,53.08
2023-03-23T01:59:19.300Z,53.14
2023-03-23T02:01:47.512Z,53.18
2023-03-23T02:04:17.827Z,53.30
2023-03-23T02:06:45.988Z,53.48
2023-03-23T02:09:20.489Z,53.38
2023-03-23T02:11:55.274Z,53.29
2023-03-23T02:14:24.863Z,53.48
2023-03-23T02:17:18.426Z,53.50
2023-03-23T02:19:57.702Z,53.54
2023-03-23T02:22:43.835Z,53.57
2023-03-23T02:25:24.457Z,53.68
2023-03-23T02:28:22.392Z,53.69
2023-03-23T02:31:23.499Z,53.78
2023-03-23T02:34:06.255Z,53.90
2023-03-23T02:37:04.810Z,53.62
2023-03-23T02:39:39.123Z,53.57
2023-03-23T02:42:13.451Z,53.84
2023-03-23T02:44:45.145Z,53.80
2023-03-23T02:47:20.468Z,53.91
2023-03-23T02:49:52.485Z,53.82
2023-03-23T02:52:26.012Z,53.82
2023-03-23T02:54:54.950Z,53.99
2023-03-23T02:57:24.773Z,53.78
2023-03-23T03:00:12.422Z,53.81
2023-03-23T03:02:42.708Z,53.90
2023-03-23T03:05:31.654Z,53.80
2023-03-23T03:08:25.648Z,53.93
2023-03-23T03:10:56.064Z,54.05
2023-03-23T03:13:35.443Z,53.98
2023-03-23T03:16:08.375Z,53.99
2023-03-23T03:18:50.132Z,53.93
2023-03-23T03:21:21.491Z,54.17
2023-03-23T03:23:50.792Z,53.75
2023-03-23T03:26:18.547Z,53.98
2023-03-23T03:28:49.158Z,53.89
2023-03-23T03:31:20.001Z,54.10
2023-03-23T03:33:48.231Z,54.03
2023-03-23T03:36:21.794Z,53.96
2023-03-23T03:38:51.710Z,53.99
2023-03-23T03:41:19.908Z,54.12
2023-03-23T03:43:47.170Z,54.16
2023-03-23T03:46:14.322Z,53.98
2023-03-23T03:48:41.480Z,53.98
2023-03-23T03:51:10.054Z,53.91
2023-03-23T03:53:37.326Z,54.05
2023-03-23T03:56:05.907Z,53.99
2023-03-23T03:58:32.895Z,54.19
2023-03-23T04:01:01.506Z,54.18
2023-03-23T04:03:28.680Z,54.20
2023-03-23T04:05:58.448Z,54.15
2023-03-23T04:08:28.119Z,54.12
2023-03-23T04:10:55.162Z,54.23
2023-03-23T04:13:22.797Z,54.14
2023-03-23T04:16:07.193Z,54.23
2023-03-23T04:18:37.285Z,54.25
2023-03-23T04:21:05.337Z,53.98
2023-03-23T04:23:35.058Z,54.06
2023-03-23T04:26:02.771Z,54.08
2023-03-23T04:28:30.758Z,54.22
2023-03-23T04:30:57.668Z,54.05
2023-03-23T04:33:26.451Z,54.16
2023-03-23T04:36:17.397Z,54.04
2023-03-23T04:38:44.370Z,54.15
2023-03-23T04:41:11.381Z,54.24
2023-03-23T04:43:42.929Z,54.21
2023-03-23T04:46:10.224Z,54.25
2023-03-23T04:48:37.434Z,54.23
2023-03-23T04:51:05.361Z,54.40
2023-03-23T04:53:33.365Z,54.22
2023-03-23T04:56:02.469Z,54.38
2023-03-23T04:58:30.397Z,54.26
2023-03-23T05:00:57.421Z,54.44
2023-03-23T05:03:24.428Z,54.17
2023-03-23T05:05:54.732Z,54.29
2023-03-23T05:08:23.342Z,54.13
2023-03-23T05:10:55.882Z,54.39
2023-03-23T05:13:23.431Z,54.28
2023-03-23T05:15:50.587Z,54.18
2023-03-23T05:18:18.052Z,53.96
2023-03-23T05:20:47.566Z,54.24
2023-03-23T05:23:14.710Z,54.15
2023-03-23T05:25:42.801Z,54.25
2023-03-23T05:28:12.057Z,54.16
2023-03-23T05:30:40.152Z,54.16
2023-03-23T05:33:07.732Z,54.29
2023-03-23T05:35:34.850Z,54.30
2023-03-23T05:38:03.288Z,54.34
2023-03-23T05:40:31.404Z,54.15
2023-03-23T05:43:00.257Z,54.15
2023-03-23T05:45:27.701Z,54.17
2023-03-23T05:47:54.637Z,54.39
2023-03-23T05:50:21.625Z,54.26
2023-03-23T05:52:48.650Z,54.20
2023-03-23T05:55:16.479Z,54.21
2023-03-23T05:57:43.454Z,54.46
2023-03-23T06:00:15.571Z,54.37
2023-03-23T06:02:46.962Z,54.42
2023-03-23T06:05:14.979Z,54.18
2023-03-23T06:07:42.138Z,54.04
2023-03-23T06:10:10.476Z,54.14
2023-03-23T06:12:38.922Z,53.69
2023-03-23T06:15:07.983Z,53.67
2023-03-23T06:17:36.248Z,53.34
2023-03-23T06:20:11.529Z,53.63
2023-03-23T06:22:39.570Z,53.73
2023-03-23T06:25:07.921Z,53.37
2023-03-23T06:27:34.969Z,53.10
2023-03-23T06:30:02.861Z,53.83
2023-03-23T06:32:32.034Z,54.51
2023-03-23T06:34:59.193Z,54.11
2023-03-23T06:37:26.807Z,54.14
2023-03-23T06:39:53.811Z,53.74
2023-03-23T06:42:21.057Z,54.09
2023-03-23T06:44:48.408Z,53.85
2023-03-23T06:47:15.557Z,53.76
2023-03-23T06:49:42.864Z,53.63
2023-03-23T06:52:09.831Z,53.85
2023-03-23T06:54:37.456Z,49.05
2023-03-23T06:57:04.678Z,48.43
2023-03-23T06:59:32.251Z,48.33
2023-03-23T07:01:59.315Z,50.00
2023-03-23T07:04:26.219Z,52.49
2023-03-23T07:06:53.211Z,52.97
2023-03-23T07:09:21.320Z,52.86
2023-03-23T07:11:49.419Z,52.59
2023-03-23T07:14:16.496Z,52.37
2023-03-23T07:16:43.740Z,52.17
2023-03-23T07:19:11.093Z,52.36
2023-03-23T07:21:38.354Z,52.17
2023-03-23T07:24:05.621Z,50.71
2023-03-23T07:26:33.221Z,51.41
2023-03-23T07:29:00.559Z,51.93
2023-03-23T07:31:27.764Z,51.29
2023-03-23T07:33:54.973Z,51.67
2023-03-23T07:36:22.176Z,52.22
2023-03-23T07:38:49.637Z,52.73
2023-03-23T07:41:16.738Z,52.92
2023-03-23T07:43:43.797Z,52.46
2023-03-23T07:46:10.959Z,52.72
2023-03-23T07:48:39.150Z,52.44
2023-03-23T07:51:08.506Z,52.96
2023-03-23T07:53:35.499Z,53.38
2023-03-23T07:56:04.762Z,52.81
2023-03-23T07:58:31.840Z,52.61
2023-03-23T08:00:59.257Z,52.37
2023-03-23T08:03:26.196Z,52.31
2023-03-23T08:05:53.321Z,52.06
2023-03-23T08:08:20.397Z,51.98
2023-03-23T08:10:47.931Z,51.55
2023-03-23T08:13:15.945Z,51.60
2023-03-23T08:15:43.298Z,51.51
2023-03-23T08:18:10.708Z,51.45
2023-03-23T08:20:38.120Z,51.57
2023-03-23T08:23:05.670Z,51.51
2023-03-23T08:25:32.812Z,51.33
2023-03-23T08:28:02.793Z,51.50
2023-03-23T08:30:31.443Z,51.32
2023-03-23T08:33:00.327Z,51.30
2023-03-23T08:35:27.426Z,51.27
2023-03-23T08:37:55.843Z,51.25
2023-03-23T08:40:24.337Z,51.40
2023-03-23T08:43:00.841Z,51.43
2023-03-23T08:45:29.266Z,51.33
2023-03-23T08:47:57.537Z,51.09
2023-03-23T08:50:28.416Z,49.56
2023-03-23T08:52:56.205Z,47.94
2023-03-23T08:55:24.002Z,48.90
2023-03-23T08:57:51.224Z,50.31
2023-03-23T09:00:21.416Z,50.32
2023-03-23T09:02:52.004Z,50.47
2023-03-23T09:05:22.838Z,51.34
2023-03-23T09:07:54.188Z,50.99
2023-03-23T09:10:22.139Z,50.34
2023-03-23T09:12:49.902Z,50.75
2023-03-23T09:15:23.961Z,51.16
2023-03-23T09:18:00.566Z,50.38
2023-03-23T09:20:29.887Z,50.91
2023-03-23T09:22:59.167Z,51.23
2023-03-23T09:25:28.625Z,50.77
2023-03-23T09:27:59.261Z,51.06
2023-03-23T09:30:33.351Z,50.85
2023-03-23T09:33:05.505Z,50.91
2023-03-23T09:35:35.655Z,50.61
2023-03-23T09:38:03.788Z,50.54
2023-03-23T09:40:50.223Z,50.32
2023-03-23T09:43:49.548Z,51.24
2023-03-23T09:46:19.567Z,51.06
2023-03-23T09:48:59.363Z,50.25
2023-03-23T09:51:52.538Z,50.30
2023-03-23T09:54:26.757Z,50.42
2023-03-23T09:56:55.940Z,50.57
2023-03-23T09:59:45.264Z,50.67
2023-03-23T10:02:21.068Z,50.84
2023-03-23T10:04:56.271Z,50.50
2023-03-23T10:07:27.142Z,50.46
2023-03-23T10:09:58.509Z,50.38
2023-03-23T10:13:01.403Z,50.44
2023-03-23T10:15:32.523Z,50.76
2023-03-23T10:18:02.137Z,50.53
2023-03-23T10:20:58.783Z,50.58
2023-03-23T10:23:59.909Z,50.87
2023-03-23T10:26:51.679Z,51.02
2023-03-23T10:29:34.336Z,50.61
2023-03-23T10:32:26.895Z,50.53
2023-03-23T10:34:59.521Z,50.27
2023-03-23T10:37:39.244Z,50.36
2023-03-23T10:40:18.663Z,50.77
2023-03-23T10:42:49.964Z,50.48
2023-03-23T10:45:17.714Z,48.59
2023-03-23T10:47:51.162Z,49.47
2023-03-23T10:50:30.269Z,50.76
2023-03-23T10:53:00.561Z,50.30
2023-03-23T10:55:41.719Z,50.68
2023-03-23T10:58:11.442Z,50.22
2023-03-23T11:00:45.998Z,50.64
2023-03-23T11:03:17.392Z,51.09
2023-03-23T11:05:55.250Z,51.28
2023-03-23T11:08:32.260Z,51.60
2023-03-23T11:11:11.284Z,51.22
2023-03-23T11:13:47.128Z,50.95
2023-03-23T11:16:48.178Z,50.58
2023-03-23T11:19:27.668Z,50.87
2023-03-23T11:22:01.551Z,50.88
2023-03-23T11:24:29.365Z,50.67
2023-03-23T11:26:59.735Z,50.44
2023-03-23T11:29:30.035Z,50.85
2023-03-23T11:32:09.662Z,50.63
2023-03-23T11:34:43.813Z,51.06
2023-03-23T11:37:17.318Z,50.57
2023-03-23T11:40:16.157Z,50.33
2023-03-23T11:42:48.113Z,50.21
2023-03-23T11:45:39.450Z,50.69
2023-03-23T11:48:44.806Z,47.58
2023-03-23T11:51:19.232Z,47.46
2023-03-23T11:53:49.661Z,48.69
2023-03-23T11:56:28.334Z,49.68
2023-03-23T11:58:57.552Z,50.43
2023-03-23T12:01:37.793Z,49.95
2023-03-23T12:04:14.480Z,50.21
2023-03-23T12:07:12.538Z,50.12
2023-03-23T12:10:10.125Z,50.14
2023-03-23T12:13:04.856Z,49.50
2023-03-23T12:15:44.393Z,50.13
2023-03-23T12:18:14.662Z,49.78
2023-03-23T12:20:55.421Z,49.98
2023-03-23T12:23:33.706Z,46.70
2023-03-23T12:26:09.526Z,46.22
2023-03-23T12:28:51.760Z,45.45
2023-03-23T12:31:37.948Z,46.43
2023-03-23T12:34:23.795Z,46.72
2023-03-23T12:36:53.872Z,47.48
2023-03-23T12:39:33.429Z,47.63
2023-03-23T12:42:09.758Z,47.73
2023-03-23T12:44:44.660Z,47.67
2023-03-23T12:47:30.204Z,46.35
2023-03-23T12:50:01.275Z,45.99
2023-03-23T12:52:40.906Z,46.01
2023-03-23T12:55:48.433Z,45.49
2023-03-23T12:58:20.610Z,45.64
2023-03-23T13:00:53.885Z,45.40
2023-03-23T13:03:40.195Z,45.32
2023-03-23T13:06:21.344Z,45.45
2023-03-23T13:09:29.080Z,45.41
2023-03-23T13:11:59.535Z,45.25
2023-03-23T13:14:47.950Z,45.24
2023-03-23T13:17:47.206Z,45.55
2023-03-23T13:20:42.652Z,46.20
2023-03-23T13:23:13.216Z,46.64
2023-03-23T13:25:45.177Z,47.00
2023-03-23T13:28:19.014Z,47.25
2023-03-23T13:30:56.408Z,47.67
2023-03-23T13:33:24.315Z,47.71
2023-03-23T13:35:54.587Z,48.14
2023-03-23T13:38:32.508Z,48.16
2023-03-23T13:41:07.395Z,48.11
2023-03-23T13:43:37.499Z,48.39
2023-03-23T13:46:12.407Z,49.05
2023-03-23T13:49:17.660Z,49.40
2023-03-23T13:51:45.204Z,51.17
2023-03-23T13:54:24.499Z,51.29
2023-03-23T13:57:04.474Z,52.07
2023-03-23T13:59:49.936Z,51.43
2023-03-23T14:02:39.176Z,51.24
2023-03-23T14:05:19.253Z,50.39
2023-03-23T14:07:57.000Z,50.35
2023-03-23T14:10:24.981Z,50.88
2023-03-23T14:12:55.244Z,50.06
2023-03-23T14:15:22.386Z,50.24
2023-03-23T14:17:52.296Z,48.04
2023-03-23T14:20:31.507Z,46.55
2023-03-23T14:22:58.511Z,46.22
2023-03-23T14:25:30.665Z,46.98
2023-03-23T14:27:58.454Z,47.16
2023-03-23T14:30:28.466Z,47.35
2023-03-23T14:33:06.890Z,47.04
2023-03-23T14:35:40.188Z,46.95
2023-03-23T14:38:17.666Z,46.28
2023-03-23T14:40:45.413Z,46.46
2023-03-23T14:43:17.250Z,46.77
2023-03-23T14:45:44.935Z,46.94
2023-03-23T14:48:16.709Z,47.15
2023-03-23T14:50:52.948Z,46.73
2023-03-23T14:53:24.770Z,46.57
2023-03-23T14:55:54.534Z,47.02
2023-03-23T14:58:24.215Z,46.98
2023-03-23T15:00:57.828Z,46.51
2023-03-23T15:03:25.061Z,46.52
2023-03-23T15:05:56.725Z,46.39
2023-03-23T15:08:35.834Z,46.33
2023-03-23T15:11:14.880Z,46.54
2023-03-23T15:13:47.106Z,46.32
2023-03-23T15:16:22.160Z,46.47
2023-03-23T15:18:55.212Z,46.23
2023-03-23T15:21:30.430Z,46.44
2023-03-23T15:23:58.970Z,46.60
2023-03-23T15:26:28.561Z,46.29
2023-03-23T15:29:17.842Z,46.45
2023-03-23T15:32:02.418Z,46.48
2023-03-23T15:34:45.038Z,46.29
2023-03-23T15:37:31.273Z,43.83
2023-03-23T15:40:00.524Z,45.27
2023-03-23T15:42:34.004Z,45.95
2023-03-23T15:45:09.855Z,45.64
2023-03-23T15:47:48.382Z,45.93
2023-03-23T15:50:18.896Z,46.49
2023-03-23T15:52:47.803Z,46.56
2023-03-23T15:55:24.697Z,46.51
2023-03-23T15:57:53.060Z,46.80
2023-03-23T16:00:23.205Z,47.09
2023-03-23T16:02:55.919Z,46.99
2023-03-23T16:05:23.409Z,47.14
2023-03-23T16:07:51.996Z,47.37
2023-03-23T16:10:22.048Z,48.27
2023-03-23T16:12:49.305Z,48.22
2023-03-23T16:15:17.006Z,48.34
2023-03-23T16:17:44.670Z,48.39
2023-03-23T16:20:20.942Z,48.46
2023-03-23T16:22:49.189Z,48.70
2023-03-23T16:25:17.478Z,48.30
2023-03-23T16:30:20.435Z,48.40
2023-03-23T16:32:47.994Z,48.90
2023-03-23T16:35:16.140Z,48.66
2023-03-23T16:38:06.860Z,48.32
2023-03-23T16:40:35.181Z,48.34
2023-03-23T16:43:02.259Z,48.36
2023-03-23T16:45:44.157Z,48.53
2023-03-23T16:48:12.846Z,48.75
2023-03-23T16:50:40.536Z,48.77
2023-03-23T16:53:09.096Z,49.04
2023-03-23T16:55:37.594Z,48.83
2023-03-23T16:58:16.299Z,49.13
2023-03-23T17:00:45.661Z,47.88
2023-03-23T17:03:13.856Z,47.53
2023-03-23T17:05:41.323Z,47.61
2023-03-23T17:08:08.618Z,48.15
2023-03-23T17:10:38.976Z,48.42
2023-03-23T17:13:06.657Z,48.74
2023-03-23T17:15:36.656Z,48.66
2023-03-23T17:18:04.150Z,48.65
2023-03-23T17:20:35.089Z,48.82
2023-03-23T17:23:02.859Z,48.48
2023-03-23T17:25:33.245Z,48.95
2023-03-23T17:28:05.579Z,48.91
2023-03-23T17:30:33.383Z,48.83
2023-03-23T17:33:00.564Z,48.99
2023-03-23T17:35:27.875Z,49.34
2023-03-23T17:37:55.667Z,49.31
2023-03-23T17:40:22.877Z,49.10
2023-03-23T17:42:49.998Z,49.27
2023-03-23T17:45:17.382Z,49.27
2023-03-23T17:47:44.549Z,49.30
2023-03-23T17:50:12.672Z,49.39
2023-03-23T17:52:40.918Z,49.08
2023-03-23T17:55:08.818Z,49.07
2023-03-23T17:57:36.008Z,48.83
2023-03-23T18:00:05.387Z,49.39
2023-03-23T18:02:32.579Z,49.59
2023-03-23T18:05:00.219Z,49.03
2023-03-23T18:07:27.847Z,49.41
2023-03-23T18:10:01.359Z,49.25
2023-03-23T18:12:28.903Z,49.28
2023-03-23T18:14:59.867Z,49.26
2023-03-23T18:17:27.962Z,49.07
2023-03-23T18:19:55.926Z,49.95
2023-03-23T18:22:23.325Z,47.66
2023-03-23T18:24:50.588Z,48.83
2023-03-23T18:27:17.949Z,49.02
2023-03-23T18:29:44.950Z,48.98
2023-03-23T18:32:12.149Z,49.17
2023-03-23T18:34:42.038Z,49.40
2023-03-23T18:37:09.535Z,49.45
2023-03-23T18:39:38.522Z,49.33
2023-03-23T18:42:06.749Z,49.31
2023-03-23T18:44:34.362Z,49.45
2023-03-23T18:47:01.691Z,49.48
2023-03-23T18:49:30.452Z,49.36
2023-03-23T18:51:57.602Z,49.36
2023-03-23T18:54:26.238Z,47.52
2023-03-23T18:56:53.638Z,46.40
2023-03-23T18:59:24.485Z,45.98
2023-03-23T19:01:52.373Z,47.16
2023-03-23T19:04:23.088Z,48.98
2023-03-23T19:06:50.679Z,49.08
2023-03-23T19:09:19.294Z,49.82
2023-03-23T19:11:47.747Z,50.11
2023-03-23T19:14:15.813Z,50.18
2023-03-23T19:16:43.159Z,49.92
2023-03-23T19:19:10.899Z,50.04
2023-03-23T19:21:40.368Z,49.67
2023-03-23T19:24:08.873Z,50.32
2023-03-23T19:26:41.917Z,50.61
2023-03-23T19:29:26.750Z,50.11
2023-03-23T19:31:57.177Z,50.29
2023-03-23T19:34:26.275Z,50.65
2023-03-23T19:37:03.103Z,50.56
2023-03-23T19:39:34.592Z,50.40
2023-03-23T19:42:04.421Z,50.09
2023-03-23T19:44:32.628Z,50.70
2023-03-23T19:47:00.023Z,50.48
2023-03-23T19:49:27.928Z,50.32
2023-03-23T19:52:08.961Z,50.62
2023-03-23T19:54:39.605Z,50.58
2023-03-23T19:57:07.871Z,50.01
2023-03-23T19:59:35.679Z,50.15
2023-03-23T20:02:04.206Z,50.08
2023-03-23T20:04:31.569Z,50.30
2023-03-23T20:07:00.035Z,50.54
2023-03-23T20:09:27.581Z,50.42
2023-03-23T20:11:54.785Z,50.75
2023-03-23T20:14:22.046Z,50.36
2023-03-23T20:16:49.229Z,50.47
2023-03-23T20:19:16.822Z,50.44
2023-03-23T20:21:45.664Z,50.24
2023-03-23T20:24:13.638Z,50.83
2023-03-23T20:26:43.956Z,50.88
2023-03-23T20:29:11.608Z,50.74
2023-03-23T20:31:43.257Z,50.74
2023-03-23T20:34:14.512Z,50.89
2023-03-23T20:36:46.681Z,51.54
2023-03-23T20:39:21.826Z,51.66
2023-03-23T20:41:54.904Z,51.08
2023-03-23T20:44:25.673Z,51.43
2023-03-23T20:46:54.408Z,51.24
2023-03-23T20:49:22.438Z,51.52
2023-03-23T20:51:52.455Z,50.83
2023-03-23T20:54:22.516Z,50.83
2023-03-23T20:56:50.183Z,51.04
2023-03-23T20:59:18.169Z,50.99
2023-03-23T21:01:47.269Z,50.38
2023-03-23T21:04:25.013Z,50.82
2023-03-23T21:06:52.681Z,50.27
2023-03-23T21:09:22.042Z,51.29
2023-03-23T21:11:50.134Z,50.74
2023-03-23T21:14:18.297Z,50.32
2023-03-23T21:16:46.966Z,50.11
2023-03-23T21:19:14.908Z,49.63
2023-03-23T21:21:55.947Z,49.68
2023-03-23T21:24:29.280Z,49.71
2023-03-23T21:27:00.778Z,49.75
2023-03-23T21:29:28.653Z,49.81
2023-03-23T21:34:28.367Z,49.46
2023-03-23T21:36:56.045Z,49.89
2023-03-23T21:39:23.639Z,49.58
2023-03-23T21:41:51.972Z,49.57
2023-03-23T21:44:20.705Z,49.29
2023-03-23T21:46:48.735Z,48.78
2023-03-23T21:49:18.840Z,48.85
2023-03-23T21:51:49.421Z,48.75
2023-03-23T21:54:16.907Z,49.04
2023-03-23T21:56:44.238Z,48.71
2023-03-23T21:59:11.653Z,48.91
2023-03-23T22:01:40.702Z,48.70
2023-03-23T22:04:09.239Z,49.18
2023-03-23T22:06:36.469Z,49.11
2023-03-23T22:09:05.881Z,49.28
2023-03-23T22:11:33.615Z,49.33
2023-03-23T22:14:01.371Z,49.04
2023-03-23T22:16:28.908Z,48.78
2023-03-23T22:18:59.588Z,48.99
2023-03-23T22:21:28.789Z,48.87
2023-03-23T22:23:58.314Z,49.04
2023-03-23T22:26:27.739Z,48.80
2023-03-23T22:28:55.933Z,49.13
2023-03-23T22:31:28.985Z,48.74
2023-03-23T22:33:57.950Z,49.08
2023-03-23T22:36:27.013Z,48.92
2023-03-23T22:38:55.926Z,49.09
2023-03-23T22:41:28.835Z,48.85
2023-03-23T22:43:56.153Z,49.29
2023-03-23T22:46:24.821Z,48.97
2023-03-23T22:48:51.958Z,49.53
2023-03-23T22:51:20.353Z,49.27
2023-03-23T22:53:48.187Z,49.13
2023-03-23T22:56:16.549Z,49.35
2023-03-23T22:58:44.279Z,49.49
2023-03-23T23:01:22.942Z,49.37
2023-03-23T23:03:50.126Z,49.62
2023-03-23T23:06:18.431Z,49.50
2023-03-23T23:08:47.160Z,49.54
2023-03-23T23:11:16.631Z,49.78
2023-03-23T23:13:44.406Z,49.71
2023-03-23T23:16:13.620Z,49.65
2023-03-23T23:18:41.045Z,49.54
2023-03-23T23:21:14.779Z,49.55
2023-03-23T23:23:42.146Z,49.32
2023-03-23T23:26:10.003Z,49.58
2023-03-23T23:28:37.174Z,49.66
2023-03-23T23:31:06.755Z,49.75
2023-03-23T23:33:33.983Z,49.73
2023-03-23T23:36:02.110Z,49.87
2023-03-23T23:38:29.139Z,49.82
2023-03-23T23:40:56.181Z,49.84
2023-03-23T23:43:23.270Z,49.79
2023-03-23T23:45:50.259Z,50.17
2023-03-23T23:48:17.466Z,49.92
2023-03-23T23:50:44.682Z,49.83
2023-03-23T23:53:13.333Z,50.09
2023-03-23T23:55:40.726Z,49.79
2023-03-23T23:58:08.135Z,50.06
